createdAt,value
2018-07-10T00:01:45.206Z,17.20
2018-07-10T00:04:30.029Z,17.10
2018-07-10T00:08:11.379Z,17.10
2018-07-10T00:10:46.154Z,17.10
2018-07-10T00:13:14.083Z,17.00
2018-07-10T00:18:09.908Z,17.00
2018-07-10T00:20:38.048Z,16.90
2018-07-10T00:23:06.023Z,16.90
2018-07-10T00:28:01.879Z,16.90
2018-07-10T00:30:29.967Z,16.90
2018-07-10T00:32:57.975Z,16.90
2018-07-10T00:35:26.350Z,16.90
2018-07-10T00:38:05.577Z,16.90
2018-07-10T00:40:33.626Z,16.90
2018-07-10T00:43:02.384Z,17.00
2018-07-10T00:45:30.460Z,17.00
2018-07-10T00:50:26.339Z,17.00
2018-07-10T00:52:54.103Z,17.00
2018-07-10T00:55:21.983Z,17.00
2018-07-10T00:57:50.111Z,16.90
2018-07-10T01:00:32.406Z,16.90
2018-07-10T01:03:00.704Z,16.80
2018-07-10T01:05:28.799Z,16.80
2018-07-10T01:07:57.577Z,16.80
2018-07-10T01:10:25.712Z,16.80
2018-07-10T01:12:53.573Z,16.70
2018-07-10T01:15:23.277Z,16.70
2018-07-10T01:17:51.312Z,16.70
2018-07-10T01:20:20.338Z,16.60
2018-07-10T01:22:49.704Z,16.70
2018-07-10T01:25:17.712Z,16.70
2018-07-10T01:27:45.715Z,16.70
2018-07-10T01:32:43.365Z,16.60
2018-07-10T01:35:11.376Z,16.60
2018-07-10T01:37:39.305Z,16.60
2018-07-10T01:40:07.625Z,16.60
2018-07-10T01:42:35.906Z,16.60
2018-07-10T01:45:03.916Z,16.60
2018-07-10T01:47:31.888Z,16.60
2018-07-10T01:49:59.875Z,16.50
2018-07-10T01:52:28.279Z,16.50
2018-07-10T01:54:56.327Z,16.40
2018-07-10T01:57:25.263Z,16.30
2018-07-10T01:59:53.926Z,16.20
2018-07-10T02:02:23.108Z,16.00
2018-07-10T02:04:51.163Z,16.00
2018-07-10T02:07:19.159Z,16.00
2018-07-10T02:12:16.027Z,16.00
2018-07-10T02:14:44.047Z,16.00
2018-07-10T02:17:12.080Z,16.00
2018-07-10T02:19:40.011Z,16.00
2018-07-10T02:22:08.300Z,16.10
2018-07-10T02:24:36.411Z,16.20
2018-07-10T02:27:04.387Z,16.30
2018-07-10T02:29:32.533Z,16.30
2018-07-10T02:32:00.739Z,16.30
2018-07-10T02:34:28.775Z,16.30
2018-07-10T02:36:56.772Z,16.30
2018-07-10T02:39:24.917Z,16.20
2018-07-10T02:41:53.475Z,16.20
2018-07-10T02:44:21.504Z,16.30
2018-07-10T02:46:49.477Z,16.30
2018-07-10T02:49:19.176Z,16.30
2018-07-10T02:51:52.971Z,16.40
2018-07-10T02:54:23.156Z,16.40
2018-07-10T02:56:52.746Z,16.50
2018-07-10T02:59:20.672Z,16.50
2018-07-10T03:01:48.740Z,16.40
2018-07-10T03:04:16.891Z,16.40
2018-07-10T03:06:45.399Z,16.40
2018-07-10T03:09:13.865Z,16.40
2018-07-10T03:11:41.885Z,16.40
2018-07-10T03:14:10.183Z,16.30
2018-07-10T03:16:38.887Z,16.40
2018-07-10T03:19:08.220Z,16.40
2018-07-10T03:21:36.760Z,16.30
2018-07-10T03:24:04.837Z,16.20
2018-07-10T03:26:32.914Z,16.20
2018-07-10T03:29:01.229Z,16.20
2018-07-10T03:31:29.387Z,16.20
2018-07-10T03:33:57.431Z,16.10
2018-07-10T03:36:25.530Z,16.10
2018-07-10T03:38:53.743Z,16.00
2018-07-10T03:41:21.780Z,16.00
2018-07-10T03:43:49.829Z,16.00
2018-07-10T03:46:18.028Z,16.00
2018-07-10T03:48:46.080Z,16.00
2018-07-10T03:51:14.106Z,16.00
2018-07-10T03:53:42.157Z,15.90
2018-07-10T03:56:10.933Z,15.90
2018-07-10T03:58:38.889Z,15.80
2018-07-10T04:01:10.918Z,15.70
2018-07-10T04:03:38.899Z,15.60
2018-07-10T04:06:07.336Z,15.50
2018-07-10T04:08:36.978Z,15.50
2018-07-10T04:11:05.034Z,15.40
2018-07-10T04:13:33.711Z,15.30
2018-07-10T04:16:02.442Z,15.20
2018-07-10T04:18:31.784Z,15.20
2018-07-10T04:21:18.285Z,15.20
2018-07-10T04:23:48.230Z,15.10
2018-07-10T04:26:20.026Z,15.00
2018-07-10T04:28:51.837Z,15.10
2018-07-10T04:31:26.771Z,15.10
2018-07-10T04:33:54.750Z,15.00
2018-07-10T04:36:22.632Z,15.10
2018-07-10T04:38:56.427Z,15.20
2018-07-10T04:41:26.811Z,15.20
2018-07-10T04:44:05.193Z,15.30
2018-07-10T04:46:36.279Z,15.30
2018-07-10T04:49:21.332Z,15.20
2018-07-10T04:51:54.506Z,15.40
2018-07-10T04:54:28.326Z,15.40
2018-07-10T04:57:15.549Z,15.20
2018-07-10T04:59:43.685Z,15.20
2018-07-10T05:02:11.592Z,15.40
2018-07-10T05:04:39.539Z,15.50
2018-07-10T05:07:08.566Z,15.50
2018-07-10T05:09:37.863Z,15.60
2018-07-10T05:12:06.930Z,15.50
2018-07-10T05:14:35.302Z,15.40
2018-07-10T05:17:03.519Z,15.30
2018-07-10T05:19:31.854Z,15.30
2018-07-10T05:21:59.914Z,15.30
2018-07-10T05:24:28.142Z,15.20
2018-07-10T05:26:56.909Z,15.20
2018-07-10T05:29:24.944Z,15.20
2018-07-10T05:31:53.129Z,15.20
2018-07-10T05:34:21.211Z,15.20
2018-07-10T05:36:49.590Z,15.30
2018-07-10T05:39:17.596Z,15.30
2018-07-10T05:41:47.061Z,15.30
2018-07-10T05:44:18.477Z,15.30
2018-07-10T05:46:46.814Z,15.30
2018-07-10T05:49:14.855Z,15.30
2018-07-10T05:51:44.089Z,15.30
2018-07-10T05:54:12.647Z,15.40
2018-07-10T05:56:40.800Z,15.40
2018-07-10T05:59:08.954Z,15.40
2018-07-10T06:01:38.205Z,15.50
2018-07-10T06:04:07.484Z,15.60
2018-07-10T06:06:35.527Z,15.70
2018-07-10T06:09:05.467Z,15.60
2018-07-10T06:11:34.831Z,15.60
2018-07-10T06:14:02.902Z,15.60
2018-07-10T06:16:31.224Z,15.60
2018-07-10T06:18:59.312Z,15.70
2018-07-10T06:21:34.682Z,15.80
2018-07-10T06:24:05.541Z,15.90
2018-07-10T06:26:34.412Z,15.80
2018-07-10T06:29:05.199Z,15.80
2018-07-10T06:31:38.857Z,15.80
2018-07-10T06:34:07.018Z,15.90
2018-07-10T06:37:10.768Z,16.00
2018-07-10T06:39:39.143Z,16.00
2018-07-10T06:42:09.231Z,16.00
2018-07-10T06:44:37.959Z,16.00
2018-07-10T06:47:26.225Z,16.10
2018-07-10T06:49:54.132Z,16.10
2018-07-10T06:52:22.768Z,16.10
2018-07-10T06:54:57.644Z,16.00
2018-07-10T06:57:30.370Z,16.00
2018-07-10T07:00:02.175Z,15.90
2018-07-10T07:02:31.623Z,15.90
2018-07-10T07:05:00.176Z,15.80
2018-07-10T07:07:28.721Z,15.90
2018-07-10T07:09:57.445Z,16.00
2018-07-10T07:12:25.507Z,16.00
2018-07-10T07:14:53.410Z,16.00
2018-07-10T07:17:21.692Z,15.90
2018-07-10T07:19:49.728Z,15.80
2018-07-10T07:22:17.764Z,15.80
2018-07-10T07:24:45.795Z,15.70
2018-07-10T07:27:13.830Z,15.70
2018-07-10T07:29:41.881Z,15.80
2018-07-10T07:32:09.924Z,15.70
2018-07-10T07:34:38.275Z,15.60
2018-07-10T07:37:08.334Z,15.60
2018-07-10T07:39:42.114Z,15.40
2018-07-10T07:42:10.023Z,15.40
2018-07-10T07:44:38.024Z,15.30
2018-07-10T07:47:05.972Z,15.30
2018-07-10T07:49:34.125Z,15.50
2018-07-10T07:52:02.299Z,15.50
2018-07-10T07:54:30.355Z,15.40
2018-07-10T07:56:58.506Z,15.30
2018-07-10T07:59:26.568Z,15.20
2018-07-10T08:01:54.430Z,15.30
2018-07-10T08:04:22.416Z,15.30
2018-07-10T08:06:50.445Z,15.20
2018-07-10T08:09:18.550Z,15.20
2018-07-10T08:11:46.744Z,15.10
2018-07-10T08:14:16.918Z,14.90
2018-07-10T08:16:45.267Z,14.90
2018-07-10T08:19:14.812Z,14.80
2018-07-10T08:21:45.578Z,14.80
2018-07-10T08:24:13.652Z,14.70
2018-07-10T08:26:41.642Z,14.80
2018-07-10T08:29:11.562Z,14.80
2018-07-10T08:31:40.216Z,14.70
2018-07-10T08:34:08.633Z,14.60
2018-07-10T08:36:36.564Z,14.50
2018-07-10T08:39:04.779Z,14.50
2018-07-10T08:41:42.806Z,14.40
2018-07-10T08:44:11.018Z,14.50
2018-07-10T08:46:39.322Z,14.50
2018-07-10T08:49:07.724Z,14.60
2018-07-10T08:51:35.784Z,14.50
2018-07-10T08:54:05.323Z,14.60
2018-07-10T08:56:33.782Z,14.50
2018-07-10T08:59:02.100Z,14.60
2018-07-10T09:01:31.062Z,14.70
2018-07-10T09:03:59.107Z,14.70
2018-07-10T09:08:54.892Z,14.70
2018-07-10T09:13:50.938Z,14.70
2018-07-10T09:16:19.047Z,14.80
2018-07-10T09:18:47.214Z,14.80
2018-07-10T09:21:16.174Z,14.80
2018-07-10T09:23:44.602Z,14.90
2018-07-10T09:26:12.801Z,15.10
2018-07-10T09:28:40.864Z,15.30
2018-07-10T09:31:10.077Z,15.50
2018-07-10T09:33:38.587Z,15.60
2018-07-10T09:36:09.621Z,15.70
2018-07-10T09:38:37.818Z,15.80
2018-07-10T09:41:08.056Z,15.90
2018-07-10T09:43:37.923Z,16.10
2018-07-10T09:46:06.159Z,16.40
2018-07-10T09:48:34.258Z,16.70
2018-07-10T09:51:02.787Z,16.90
2018-07-10T09:53:31.641Z,17.00
2018-07-10T09:56:00.024Z,16.80
2018-07-10T09:58:28.740Z,16.70
2018-07-10T10:01:04.365Z,16.60
2018-07-10T10:03:32.654Z,16.80
2018-07-10T10:06:01.106Z,16.70
2018-07-10T10:08:30.434Z,16.70
2018-07-10T10:10:58.927Z,17.00
2018-07-10T10:13:27.656Z,17.60
2018-07-10T10:15:55.849Z,17.70
2018-07-10T10:18:23.984Z,17.80
2018-07-10T10:20:58.742Z,17.90
2018-07-10T10:23:27.363Z,18.00
2018-07-10T10:25:55.772Z,18.00
2018-07-10T10:28:24.687Z,18.30
2018-07-10T10:30:52.965Z,18.10
2018-07-10T10:33:21.022Z,17.90
2018-07-10T10:35:48.951Z,18.00
2018-07-10T10:38:17.558Z,17.90
2018-07-10T10:40:46.951Z,18.10
2018-07-10T10:43:16.387Z,18.20
2018-07-10T10:45:59.872Z,18.30
2018-07-10T10:48:28.928Z,18.30
2018-07-10T10:51:03.503Z,18.40
2018-07-10T10:53:33.134Z,18.70
2018-07-10T10:56:02.229Z,18.60
2018-07-10T10:58:31.324Z,19.00
2018-07-10T11:01:00.834Z,19.70
2018-07-10T11:03:30.791Z,20.40
2018-07-10T11:06:01.175Z,21.10
2018-07-10T11:08:30.995Z,21.40
2018-07-10T11:11:01.066Z,20.90
2018-07-10T11:13:30.471Z,20.70
2018-07-10T11:16:05.337Z,20.80
2018-07-10T11:19:01.261Z,20.50
2018-07-10T11:21:38.212Z,20.00
2018-07-10T11:24:07.066Z,19.20
2018-07-10T11:26:37.707Z,18.70
2018-07-10T11:29:06.972Z,19.00
2018-07-10T11:31:36.395Z,19.70
2018-07-10T11:34:05.711Z,20.40
2018-07-10T11:36:34.230Z,21.00
2018-07-10T11:39:07.007Z,21.20
2018-07-10T11:41:49.009Z,20.90
2018-07-10T11:44:18.017Z,20.50
2018-07-10T11:46:47.165Z,19.60
2018-07-10T11:49:15.664Z,19.20
2018-07-10T11:51:44.153Z,18.60
2018-07-10T11:54:15.571Z,18.20
2018-07-10T11:56:47.389Z,17.90
2018-07-10T11:59:19.576Z,17.60
2018-07-10T12:01:47.997Z,17.50
2018-07-10T12:04:16.189Z,17.50
2018-07-10T12:06:49.634Z,17.90
2018-07-10T12:09:18.268Z,18.40
2018-07-10T12:11:49.230Z,18.80
2018-07-10T12:14:17.710Z,18.90
2018-07-10T12:16:48.531Z,18.80
2018-07-10T12:19:17.965Z,18.70
2018-07-10T12:21:46.573Z,18.70
2018-07-10T12:24:16.902Z,18.60
2018-07-10T12:26:45.853Z,18.60
2018-07-10T12:29:15.304Z,18.80
2018-07-10T12:31:44.434Z,19.00
2018-07-10T12:34:13.241Z,18.90
2018-07-10T12:36:41.889Z,19.10
2018-07-10T12:39:10.430Z,19.00
2018-07-10T12:41:39.941Z,19.30
2018-07-10T12:44:09.636Z,19.60
2018-07-10T12:46:38.982Z,19.50
2018-07-10T12:49:07.326Z,19.60
2018-07-10T12:51:35.791Z,19.70
2018-07-10T12:54:04.423Z,19.90
2018-07-10T12:56:32.863Z,20.30
2018-07-10T12:59:01.208Z,20.60
2018-07-10T13:01:31.015Z,20.80
2018-07-10T13:04:00.001Z,20.70
2018-07-10T13:06:29.009Z,20.50
2018-07-10T13:08:57.701Z,20.40
2018-07-10T13:11:28.688Z,20.30
2018-07-10T13:14:00.334Z,20.10
2018-07-10T13:16:31.615Z,20.20
2018-07-10T13:21:31.801Z,20.40
2018-07-10T13:24:00.811Z,20.40
2018-07-10T13:26:31.344Z,20.20
2018-07-10T13:29:00.159Z,19.80
2018-07-10T13:31:30.147Z,19.70
2018-07-10T13:36:27.410Z,20.30
2018-07-10T13:38:56.518Z,20.40
2018-07-10T13:41:24.796Z,20.50
2018-07-10T13:43:52.983Z,20.50
2018-07-10T13:46:21.672Z,20.30
2018-07-10T13:48:50.935Z,20.40
2018-07-10T13:51:19.303Z,20.20
2018-07-10T13:53:47.734Z,20.40
2018-07-10T13:56:16.146Z,20.60
2018-07-10T13:58:44.525Z,20.60
2018-07-10T14:01:12.825Z,20.80
2018-07-10T14:03:42.081Z,20.80
2018-07-10T14:08:41.642Z,20.30
2018-07-10T14:11:12.077Z,19.90
2018-07-10T14:13:41.487Z,19.90
2018-07-10T14:16:10.578Z,20.20
2018-07-10T14:18:39.074Z,20.40
2018-07-10T14:21:08.621Z,20.20
2018-07-10T14:23:37.100Z,20.00
2018-07-10T14:26:05.618Z,19.70
2018-07-10T14:28:34.757Z,19.50
2018-07-10T14:31:03.473Z,19.70
2018-07-10T14:33:31.691Z,20.10
2018-07-10T14:36:00.451Z,20.50
2018-07-10T14:38:30.398Z,20.80
2018-07-10T14:41:01.929Z,20.80
2018-07-10T14:43:34.383Z,20.50
2018-07-10T14:46:07.448Z,20.60
2018-07-10T14:48:44.029Z,20.70
2018-07-10T14:51:13.579Z,20.60
2018-07-10T14:53:42.070Z,20.60
2018-07-10T14:56:10.869Z,20.60
2018-07-10T14:58:39.328Z,20.40
2018-07-10T15:01:08.140Z,20.30
2018-07-10T15:03:40.357Z,20.10
2018-07-10T15:06:09.219Z,20.10
2018-07-10T15:08:37.461Z,20.00
2018-07-10T15:11:06.719Z,19.90
2018-07-10T15:13:46.865Z,19.80
2018-07-10T15:16:15.822Z,19.70
2018-07-10T15:18:46.313Z,19.90
2018-07-10T15:21:14.275Z,19.90
2018-07-10T15:23:43.558Z,20.00
2018-07-10T15:26:13.009Z,20.20
2018-07-10T15:28:41.471Z,20.40
2018-07-10T15:31:10.037Z,20.60
2018-07-10T15:33:38.348Z,20.80
2018-07-10T15:36:06.856Z,20.40
2018-07-10T15:38:38.972Z,20.10
2018-07-10T15:41:07.297Z,20.20
2018-07-10T15:43:39.829Z,20.10
2018-07-10T15:46:08.760Z,20.10
2018-07-10T15:48:36.980Z,20.00
2018-07-10T15:51:07.297Z,20.10
2018-07-10T15:53:35.800Z,20.20
2018-07-10T15:56:04.400Z,19.90
2018-07-10T15:58:33.592Z,19.80
2018-07-10T16:01:04.783Z,19.50
2018-07-10T16:03:33.762Z,19.50
2018-07-10T16:06:03.755Z,19.40
2018-07-10T16:08:33.981Z,19.50
2018-07-10T16:11:04.686Z,19.60
2018-07-10T16:13:37.412Z,19.70
2018-07-10T16:16:06.832Z,19.80
2018-07-10T16:18:35.196Z,19.80
2018-07-10T16:21:04.199Z,20.00
2018-07-10T16:23:54.701Z,20.10
2018-07-10T16:26:23.578Z,20.00
2018-07-10T16:28:52.025Z,19.70
2018-07-10T16:31:20.929Z,19.50
2018-07-10T16:33:51.297Z,19.40
2018-07-10T16:36:19.597Z,19.40
2018-07-10T16:38:48.271Z,19.30
2018-07-10T16:41:30.255Z,19.30
2018-07-10T16:46:30.344Z,19.30
2018-07-10T16:49:16.479Z,19.30
2018-07-10T16:51:59.045Z,19.30
2018-07-10T16:54:27.961Z,19.20
2018-07-10T16:56:56.287Z,19.10
2018-07-10T16:59:24.742Z,18.90
2018-07-10T17:01:52.720Z,18.90
2018-07-10T17:04:22.318Z,18.70
2018-07-10T17:06:50.496Z,18.80
2018-07-10T17:09:19.064Z,19.10
2018-07-10T17:11:47.184Z,19.40
2018-07-10T17:14:15.660Z,19.30
2018-07-10T17:16:43.969Z,19.10
2018-07-10T17:19:12.507Z,18.90
2018-07-10T17:21:41.447Z,19.00
2018-07-10T17:24:10.952Z,18.80
2018-07-10T17:26:40.616Z,18.60
2018-07-10T17:29:11.051Z,18.50
2018-07-10T17:31:39.456Z,18.40
2018-07-10T17:34:07.811Z,18.40
2018-07-10T17:36:36.959Z,18.50
2018-07-10T17:39:05.894Z,18.50
2018-07-10T17:41:35.879Z,18.40
2018-07-10T17:44:06.680Z,18.40
2018-07-10T17:46:35.101Z,18.30
2018-07-10T17:49:04.082Z,18.20
2018-07-10T17:51:33.063Z,18.10
2018-07-10T17:54:03.905Z,18.00
2018-07-10T17:56:33.774Z,17.90
2018-07-10T17:59:04.855Z,17.70
2018-07-10T18:01:33.685Z,17.70
2018-07-10T18:04:03.123Z,17.60
2018-07-10T18:06:31.689Z,17.60
2018-07-10T18:09:00.159Z,17.50
2018-07-10T18:11:28.803Z,17.50
2018-07-10T18:13:57.256Z,17.40
2018-07-10T18:16:30.323Z,17.40
2018-07-10T18:19:00.147Z,17.40
2018-07-10T18:21:28.893Z,17.30
2018-07-10T18:23:57.946Z,17.30
2018-07-10T18:26:27.186Z,17.30
2018-07-10T18:29:00.805Z,17.30
2018-07-10T18:31:30.340Z,17.20
2018-07-10T18:33:59.218Z,17.20
2018-07-10T18:36:27.747Z,17.10
2018-07-10T18:38:55.936Z,17.10
2018-07-10T18:41:24.398Z,17.10
2018-07-10T18:43:53.067Z,17.00
2018-07-10T18:46:21.566Z,16.90
2018-07-10T18:48:49.720Z,16.90
2018-07-10T18:51:18.385Z,16.90
2018-07-10T18:53:46.669Z,16.90
2018-07-10T18:56:14.679Z,16.80
2018-07-10T18:58:52.871Z,16.80
2018-07-10T19:03:59.468Z,16.80
2018-07-10T19:06:28.608Z,16.80
2018-07-10T19:08:57.304Z,16.80
2018-07-10T19:11:28.232Z,16.70
2018-07-10T19:14:04.008Z,16.70
2018-07-10T19:16:33.389Z,16.70
2018-07-10T19:19:04.440Z,16.70
2018-07-10T19:21:37.953Z,16.70
2018-07-10T19:24:13.057Z,16.70
2018-07-10T19:26:41.637Z,16.70
2018-07-10T19:29:15.973Z,16.60
2018-07-10T19:31:44.068Z,16.60
2018-07-10T19:34:12.747Z,16.60
2018-07-10T19:36:41.443Z,16.60
2018-07-10T19:39:10.712Z,16.50
2018-07-10T19:41:38.876Z,16.50
2018-07-10T19:44:07.242Z,16.50
2018-07-10T19:46:36.418Z,16.50
2018-07-10T19:49:06.867Z,16.50
2018-07-10T19:51:35.189Z,16.50
2018-07-10T19:54:13.428Z,16.50
2018-07-10T19:56:41.634Z,16.50
2018-07-10T19:59:11.904Z,16.30
2018-07-10T20:01:51.197Z,16.30
2018-07-10T20:05:00.347Z,16.30
2018-07-10T20:07:37.928Z,16.30
2018-07-10T20:10:40.268Z,16.30
2018-07-10T20:13:13.215Z,16.20
2018-07-10T20:15:51.670Z,16.30
2018-07-10T20:18:34.242Z,16.30
2018-07-10T20:21:10.761Z,16.20
2018-07-10T20:23:53.694Z,16.20
2018-07-10T20:26:33.161Z,16.20
2018-07-10T20:29:09.153Z,16.20
2018-07-10T20:31:47.172Z,16.20
2018-07-10T20:34:24.054Z,16.10
2018-07-10T20:36:54.049Z,16.10
2018-07-10T20:39:31.752Z,16.10
2018-07-10T20:42:00.905Z,16.10
2018-07-10T20:44:29.679Z,16.10
2018-07-10T20:47:03.873Z,16.10
2018-07-10T20:49:46.738Z,16.10
2018-07-10T20:52:22.488Z,16.10
2018-07-10T20:54:59.351Z,16.20
2018-07-10T20:57:33.860Z,16.20
2018-07-10T21:00:10.969Z,16.20
2018-07-10T21:02:47.785Z,16.10
2018-07-10T21:05:19.796Z,16.10
2018-07-10T21:07:55.898Z,16.00
2018-07-10T21:10:36.432Z,16.00
2018-07-10T21:13:19.192Z,16.00
2018-07-10T21:15:56.273Z,16.00
2018-07-10T21:18:33.452Z,15.90
2018-07-10T21:21:15.320Z,15.90
2018-07-10T21:23:53.617Z,15.80
2018-07-10T21:26:44.564Z,15.80
2018-07-10T21:29:21.001Z,15.70
2018-07-10T21:31:56.010Z,15.70
2018-07-10T21:34:28.671Z,15.60
2018-07-10T21:37:07.322Z,15.60
2018-07-10T21:39:48.754Z,15.60
2018-07-10T21:42:27.820Z,15.60
2018-07-10T21:45:06.823Z,15.70
2018-07-10T21:47:46.560Z,15.80
2018-07-10T21:50:19.985Z,15.80
2018-07-10T21:52:48.169Z,15.60
2018-07-10T21:55:16.395Z,15.60
2018-07-10T21:57:44.398Z,15.50
2018-07-10T22:00:12.435Z,15.50
2018-07-10T22:02:40.768Z,15.50
2018-07-10T22:05:09.180Z,15.50
2018-07-10T22:07:37.615Z,15.50
2018-07-10T22:10:06.863Z,15.40
2018-07-10T22:12:39.205Z,15.30
2018-07-10T22:15:07.214Z,15.30
2018-07-10T22:17:37.567Z,15.20
2018-07-10T22:20:06.352Z,15.20
2018-07-10T22:22:34.428Z,15.20
2018-07-10T22:25:03.241Z,15.10
2018-07-10T22:27:31.346Z,15.10
2018-07-10T22:30:05.532Z,15.10
2018-07-10T22:32:40.420Z,15.00
2018-07-10T22:35:08.862Z,15.00
2018-07-10T22:37:37.029Z,15.00
2018-07-10T22:40:05.900Z,15.00
2018-07-10T22:42:34.163Z,15.00
2018-07-10T22:45:02.374Z,15.00
2018-07-10T22:47:40.022Z,15.00
2018-07-10T22:50:13.500Z,14.90
2018-07-10T22:52:45.538Z,14.90
2018-07-10T22:55:16.478Z,15.00
2018-07-10T22:57:44.895Z,14.90
2018-07-10T23:00:19.193Z,15.00
2018-07-10T23:02:47.390Z,15.20
2018-07-10T23:05:16.396Z,15.20
2018-07-10T23:07:44.652Z,15.00
2018-07-10T23:10:12.734Z,14.90
2018-07-10T23:12:41.183Z,14.80
2018-07-10T23:15:09.346Z,14.70
2018-07-10T23:17:37.543Z,14.60
2018-07-10T23:20:05.678Z,14.60
2018-07-10T23:22:45.174Z,14.50
2018-07-10T23:25:13.370Z,14.40
2018-07-10T23:27:41.585Z,14.40
2018-07-10T23:30:09.777Z,14.30
2018-07-10T23:32:37.702Z,14.20
2018-07-10T23:35:05.673Z,14.20
2018-07-10T23:37:35.244Z,14.20
2018-07-10T23:40:05.480Z,14.20
2018-07-10T23:42:34.986Z,14.10
2018-07-10T23:45:13.055Z,14.10
2018-07-10T23:47:41.360Z,14.20
2018-07-10T23:50:17.105Z,14.20
2018-07-10T23:53:52.291Z,14.10
2018-07-10T23:56:31.233Z,14.10
2018-07-10T23:59:01.330Z,13.90
